Time;durP1;ratioP1;P1;durP2;ratioP2;P2;SDS_P1;SDS_P2;PMS_P1;PMS_P2;Temp;Humidity;BMP_temperature;BMP_pressure;BME280_temperature;BME280_humidity;BME280_pressure;Samples;Min_cycle;Max_cycle;Signal;HPM_P1;HPM_P2
2023/07/16 00:02:03;;;;;;;12.98;7.93;;;20.90;99.90;;;;;;4960930;28;20026;-68
2023/07/16 00:04:29;;;;;;;11.98;8.02;;;20.60;99.90;;;;;;4960906;28;20050;-66
2023/07/16 00:06:55;;;;;;;8.35;5.93;;;20.60;99.90;;;;;;4967359;28;20023;-67
2023/07/16 00:09:20;;;;;;;12.00;7.30;;;20.70;99.90;;;;;;4977447;28;20034;-67
2023/07/16 00:11:46;;;;;;;13.20;6.07;;;20.90;99.90;;;;;;4960509;29;20023;-67
2023/07/16 00:14:12;;;;;;;10.82;5.82;;;20.90;99.90;;;;;;4969196;28;20021;-67
2023/07/16 00:16:43;;;;;;;10.52;7.30;;;21.00;99.90;;;;;;4975877;28;20090;-67
2023/07/16 00:19:11;;;;;;;18.08;6.30;;;21.00;99.90;;;;;;4979853;28;20035;-67
2023/07/16 00:21:37;;;;;;;14.63;7.30;;;21.00;99.90;;;;;;4979515;28;20023;-66
2023/07/16 00:24:03;;;;;;;12.82;6.82;;;20.90;99.90;;;;;;4966595;28;20073;-66
2023/07/16 00:26:29;;;;;;;6.68;4.88;;;20.70;99.90;;;;;;4960869;28;20028;-66
2023/07/16 00:28:54;;;;;;;6.57;4.60;;;20.80;99.90;;;;;;4973312;28;20034;-66
2023/07/16 00:31:20;;;;;;;5.32;4.20;;;20.80;99.90;;;;;;4960446;28;20027;-66
2023/07/16 00:33:45;;;;;;;7.93;4.15;;;20.90;99.90;;;;;;4961169;29;20038;-66
2023/07/16 00:36:11;;;;;;;9.63;5.35;;;20.90;99.90;;;;;;4960346;28;20046;-66
2023/07/16 00:38:36;;;;;;;7.95;3.95;;;20.70;99.90;;;;;;4961168;29;20031;-66
2023/07/16 00:41:02;;;;;;;9.32;4.47;;;20.40;99.90;;;;;;4959816;28;20061;-66
2023/07/16 00:43:28;;;;;;;4.57;3.95;;;20.60;99.90;;;;;;4960010;29;20050;-66
2023/07/16 00:45:54;;;;;;;6.53;3.67;;;20.70;99.90;;;;;;4960168;29;20027;-66
2023/07/16 00:48:20;;;;;;;6.70;3.10;;;20.70;99.90;;;;;;4959711;29;20036;-66
2023/07/16 00:50:46;;;;;;;3.60;3.22;;;20.80;99.90;;;;;;4960023;29;20027;-66
2023/07/16 00:53:12;;;;;;;3.65;2.10;;;20.80;99.90;;;;;;4959774;29;20054;-66
2023/07/16 00:55:39;;;;;;;4.32;2.50;;;20.70;99.90;;;;;;4959597;29;20125;-66
2023/07/16 00:58:06;;;;;;;5.50;3.17;;;20.70;99.90;;;;;;4959590;29;20027;-66
2023/07/16 01:00:33;;;;;;;3.15;2.17;;;20.70;99.90;;;;;;4959464;28;20027;-66
2023/07/16 01:03:04;;;;;;;3.45;2.38;;;20.70;99.90;;;;;;4959626;28;20106;-66
2023/07/16 01:06:08;;;;;;;5.67;2.00;;;20.70;99.90;;;;;;4958671;28;20027;-66
2023/07/16 01:08:47;;;;;;;5.55;1.90;;;20.70;99.90;;;;;;4959474;28;20041;-66
2023/07/16 01:11:15;;;;;;;2.80;2.05;;;20.70;99.90;;;;;;4979559;28;20031;-66
2023/07/16 01:13:41;;;;;;;2.22;1.80;;;20.70;99.90;;;;;;4979067;28;20030;-66
2023/07/16 01:16:17;;;;;;;6.93;2.00;;;20.60;99.90;;;;;;4959417;28;20071;-66
2023/07/16 01:18:42;;;;;;;3.15;1.73;;;20.50;99.90;;;;;;4959303;29;20074;-66
2023/07/16 01:21:08;;;;;;;2.95;1.77;;;20.40;99.90;;;;;;4959146;29;20055;-66
2023/07/16 01:24:07;;;;;;;2.75;1.63;;;20.50;99.90;;;;;;4960030;29;20023;-66
2023/07/16 01:27:04;;;;;;;2.70;1.40;;;20.50;99.90;;;;;;4959125;29;20062;-66
2023/07/16 01:29:44;;;;;;;1.40;1.20;;;20.50;99.90;;;;;;4959500;29;20105;-66
2023/07/16 01:32:11;;;;;;;3.90;1.73;;;20.40;99.90;;;;;;4958954;29;20031;-65
2023/07/16 01:34:38;;;;;;;2.20;1.25;;;20.40;99.90;;;;;;4959015;29;20109;-66
2023/07/16 01:37:04;;;;;;;2.15;1.50;;;20.40;99.90;;;;;;4959683;29;20022;-65
2023/07/16 01:39:32;;;;;;;4.85;1.77;;;20.30;99.90;;;;;;4958771;29;20106;-66
2023/07/16 01:41:58;;;;;;;2.95;1.65;;;20.30;99.90;;;;;;4958980;29;20074;-66
2023/07/16 01:44:23;;;;;;;1.85;1.35;;;20.30;99.90;;;;;;4959615;29;20023;-66
2023/07/16 01:47:11;;;;;;;4.10;1.63;;;20.30;99.90;;;;;;4958912;29;20030;-65
2023/07/16 01:49:37;;;;;;;3.75;1.40;;;20.30;99.90;;;;;;4958540;29;20031;-66
2023/07/16 01:52:03;;;;;;;3.42;1.55;;;20.30;99.90;;;;;;4958971;29;20034;-66
2023/07/16 01:54:29;;;;;;;4.70;1.58;;;20.30;99.90;;;;;;4958399;29;20027;-66
2023/07/16 01:56:55;;;;;;;3.47;1.45;;;20.20;99.90;;;;;;4958743;29;20027;-65
2023/07/16 01:59:20;;;;;;;4.78;1.50;;;20.10;99.90;;;;;;4958501;29;20030;-65
2023/07/16 02:01:46;;;;;;;5.68;1.67;;;20.10;99.90;;;;;;4959495;29;20023;-66
2023/07/16 02:04:11;;;;;;;3.50;1.40;;;20.10;99.90;;;;;;4958767;29;20024;-66
2023/07/16 02:06:37;;;;;;;1.67;1.40;;;20.10;99.90;;;;;;4958319;29;20027;-65
2023/07/16 02:09:02;;;;;;;3.67;1.33;;;20.10;99.90;;;;;;4958238;29;20031;-66
2023/07/16 02:11:29;;;;;;;3.90;1.40;;;20.10;99.90;;;;;;4958679;29;20031;-66
2023/07/16 02:13:54;;;;;;;4.97;1.50;;;20.10;99.90;;;;;;4958775;29;20035;-66
2023/07/16 02:16:20;;;;;;;2.90;1.10;;;20.10;99.90;;;;;;4959084;28;20050;-65
2023/07/16 02:18:45;;;;;;;3.63;1.35;;;20.00;99.90;;;;;;4958864;29;20039;-66
2023/07/16 02:21:11;;;;;;;4.20;1.77;;;20.00;99.90;;;;;;4958315;29;20023;-65
2023/07/16 02:23:37;;;;;;;4.93;1.30;;;20.00;99.90;;;;;;4958106;29;20030;-66
2023/07/16 02:26:02;;;;;;;5.40;1.10;;;19.90;99.90;;;;;;4959574;29;20031;-65
2023/07/16 02:28:28;;;;;;;5.00;1.33;;;19.80;99.90;;;;;;4958066;29;20034;-65
2023/07/16 02:30:53;;;;;;;4.03;1.20;;;19.80;99.90;;;;;;4958389;29;20034;-65
2023/07/16 02:33:19;;;;;;;7.38;1.20;;;19.80;99.90;;;;;;4957944;29;20079;-66
2023/07/16 02:35:51;;;;;;;3.00;1.10;;;19.70;99.90;;;;;;4958666;29;20031;-65
2023/07/16 02:38:18;;;;;;;2.40;1.23;;;19.50;99.90;;;;;;4958346;29;20032;-65
2023/07/16 02:40:48;;;;;;;2.40;1.45;;;19.40;99.90;;;;;;4958028;29;20082;-65
2023/07/16 02:43:14;;;;;;;5.88;1.70;;;19.30;99.90;;;;;;4958397;29;20099;-65
2023/07/16 02:45:40;;;;;;;3.13;1.00;;;19.30;99.90;;;;;;4958725;29;20038;-65
2023/07/16 02:48:07;;;;;;;3.20;1.33;;;19.20;99.90;;;;;;4957876;29;20130;-65
2023/07/16 02:50:37;;;;;;;6.40;1.20;;;19.10;99.90;;;;;;4958176;29;20082;-65
2023/07/16 02:53:04;;;;;;;4.03;1.30;;;19.10;99.90;;;;;;4957900;29;20058;-65
2023/07/16 02:55:30;;;;;;;1.77;1.17;;;19.10;99.90;;;;;;4958864;28;20066;-65
2023/07/16 02:57:56;;;;;;;2.22;1.70;;;19.10;99.90;;;;;;4957819;29;20019;-65
2023/07/16 03:00:22;;;;;;;5.68;1.58;;;19.00;99.90;;;;;;4957715;29;20020;-65
2023/07/16 03:02:48;;;;;;;4.28;1.45;;;19.00;99.90;;;;;;4958594;29;20028;-65
2023/07/16 03:05:15;;;;;;;3.15;1.85;;;19.00;99.90;;;;;;4958678;28;20030;-66
2023/07/16 03:07:41;;;;;;;4.97;1.38;;;18.90;99.90;;;;;;4957670;29;20031;-65
2023/07/16 03:10:07;;;;;;;3.47;1.40;;;18.80;99.90;;;;;;4957657;29;20037;-65
2023/07/16 03:12:32;;;;;;;8.23;1.40;;;18.80;99.90;;;;;;4958772;28;20031;-65
2023/07/16 03:14:58;;;;;;;4.10;1.20;;;18.80;99.90;;;;;;4958473;29;20034;-65
2023/07/16 03:17:23;;;;;;;6.68;1.40;;;18.80;99.90;;;;;;4958550;29;20038;-65
2023/07/16 03:19:49;;;;;;;2.35;1.10;;;18.80;99.90;;;;;;4957396;29;20031;-66
2023/07/16 03:22:14;;;;;;;9.95;1.83;;;18.90;99.90;;;;;;4957602;29;20118;-66
2023/07/16 03:24:40;;;;;;;2.17;1.10;;;18.90;99.90;;;;;;4957467;29;20024;-65
2023/07/16 03:27:06;;;;;;;5.38;1.50;;;18.90;99.90;;;;;;4957552;28;20023;-65
2023/07/16 03:29:35;;;;;;;3.45;1.20;;;18.80;99.90;;;;;;4960922;29;20027;-65
2023/07/16 03:32:01;;;;;;;7.68;1.45;;;18.70;99.90;;;;;;4961448;29;20032;-65
2023/07/16 03:34:26;;;;;;;3.10;1.55;;;18.80;99.90;;;;;;4961419;29;20026;-65
2023/07/16 03:36:52;;;;;;;6.10;1.00;;;18.70;99.90;;;;;;4960989;29;20030;-65
2023/07/16 03:39:17;;;;;;;4.65;1.20;;;18.80;99.90;;;;;;4961281;29;20015;-66
2023/07/16 03:41:43;;;;;;;6.53;1.45;;;18.80;99.90;;;;;;4961885;29;20102;-65
2023/07/16 03:44:09;;;;;;;4.63;1.30;;;18.90;99.90;;;;;;4960873;29;20023;-65
2023/07/16 03:46:34;;;;;;;3.05;1.13;;;18.80;99.90;;;;;;4961334;29;20094;-65
2023/07/16 03:49:00;;;;;;;6.97;1.73;;;18.80;99.90;;;;;;4960676;29;20027;-65
2023/07/16 03:51:25;;;;;;;6.18;1.40;;;18.80;99.90;;;;;;4961527;29;20074;-65
2023/07/16 03:53:51;;;;;;;4.80;1.23;;;18.90;99.90;;;;;;4961954;29;20023;-65
2023/07/16 03:56:16;;;;;;;2.20;1.20;;;18.80;99.90;;;;;;4960472;29;20046;-65
2023/07/16 03:58:42;;;;;;;3.75;1.40;;;18.90;99.90;;;;;;4960728;29;20059;-65
2023/07/16 04:01:07;;;;;;;4.45;1.25;;;18.90;99.90;;;;;;4960848;29;20042;-66
2023/07/16 04:03:33;;;;;;;2.40;1.45;;;19.00;99.90;;;;;;4961576;29;20055;-66
2023/07/16 04:06:03;;;;;;;6.50;1.40;;;19.00;99.90;;;;;;4961451;29;20055;-66
2023/07/16 04:08:28;;;;;;;2.88;1.25;;;19.00;99.90;;;;;;4961285;28;20027;-66
2023/07/16 04:10:54;;;;;;;6.30;1.50;;;19.10;99.90;;;;;;4961607;29;20031;-66
2023/07/16 04:13:19;;;;;;;2.05;1.30;;;19.10;99.90;;;;;;4960499;29;20094;-66
2023/07/16 04:15:45;;;;;;;2.38;1.25;;;19.10;99.90;;;;;;4961022;29;20166;-65
2023/07/16 04:18:11;;;;;;;6.10;1.30;;;19.20;99.90;;;;;;4960213;29;20059;-66
2023/07/16 04:20:36;;;;;;;7.05;1.50;;;19.10;99.90;;;;;;5035164;23;20041;-68
2023/07/16 04:23:02;;;;;;;7.00;1.88;;;19.20;99.90;;;;;;5018984;28;20032;-68
2023/07/16 04:25:27;;;;;;;4.82;1.33;;;19.20;99.90;;;;;;5018597;28;20109;-68
2023/07/16 04:27:53;;;;;;;2.13;1.38;;;19.00;99.90;;;;;;5018583;28;20026;-68
2023/07/16 04:30:18;;;;;;;4.93;1.63;;;19.00;99.90;;;;;;5018828;28;20029;-68
2023/07/16 04:32:44;;;;;;;3.38;1.30;;;18.90;99.90;;;;;;5019719;28;20080;-68
2023/07/16 04:35:09;;;;;;;4.90;1.38;;;19.00;99.90;;;;;;5018384;28;20033;-68
2023/07/16 04:37:35;;;;;;;5.38;1.30;;;19.00;99.90;;;;;;5019450;28;20053;-68
2023/07/16 04:40:00;;;;;;;4.00;1.10;;;19.10;99.90;;;;;;5018383;28;20053;-68
2023/07/16 04:42:27;;;;;;;6.63;1.38;;;19.10;99.90;;;;;;5018144;28;20109;-68
2023/07/16 04:44:52;;;;;;;5.03;1.60;;;19.10;99.90;;;;;;5018440;28;20022;-68
2023/07/16 04:47:18;;;;;;;5.80;1.33;;;19.20;99.90;;;;;;5018961;28;20141;-68
2023/07/16 04:49:43;;;;;;;1.65;1.05;;;19.10;99.90;;;;;;5018387;28;20028;-68
2023/07/16 04:52:09;;;;;;;3.95;1.52;;;19.20;99.90;;;;;;5019302;28;20022;-68
2023/07/16 04:54:36;;;;;;;8.23;1.77;;;19.30;99.90;;;;;;5018753;28;20026;-68
2023/07/16 04:57:02;;;;;;;5.70;1.60;;;19.20;99.90;;;;;;5018103;28;20022;-68
2023/07/16 04:59:28;;;;;;;7.40;1.48;;;19.10;99.90;;;;;;5016553;28;20029;-68
2023/07/16 05:01:53;;;;;;;7.97;1.30;;;19.20;99.90;;;;;;5016338;28;20029;-68
2023/07/16 05:04:19;;;;;;;9.35;1.70;;;19.20;99.90;;;;;;5017367;28;20022;-68
2023/07/16 05:06:44;;;;;;;5.00;1.60;;;19.20;99.90;;;;;;5018151;28;20037;-68
2023/07/16 05:09:10;;;;;;;6.47;1.73;;;19.30;99.90;;;;;;5018619;28;20025;-68
2023/07/16 05:11:37;;;;;;;5.38;1.40;;;19.20;99.90;;;;;;5017703;28;20030;-68
2023/07/16 05:14:02;;;;;;;12.82;1.65;;;19.30;99.90;;;;;;5018672;28;20029;-68
2023/07/16 05:16:28;;;;;;;5.60;1.65;;;19.30;99.90;;;;;;5017648;28;20022;-68
2023/07/16 05:18:53;;;;;;;4.25;1.45;;;19.40;99.90;;;;;;5017480;28;20026;-68
2023/07/16 05:21:19;;;;;;;3.47;1.42;;;19.40;99.90;;;;;;5018887;28;20022;-68
2023/07/16 05:23:44;;;;;;;4.22;1.50;;;19.30;99.90;;;;;;5017702;28;20029;-68
2023/07/16 05:26:10;;;;;;;7.10;1.73;;;19.40;99.90;;;;;;5017550;28;20049;-68
2023/07/16 05:28:36;;;;;;;3.38;1.40;;;19.40;99.90;;;;;;5018333;28;20036;-68
2023/07/16 05:31:03;;;;;;;3.28;1.27;;;19.50;99.90;;;;;;5017460;28;20041;-68
2023/07/16 05:33:28;;;;;;;3.20;1.35;;;19.50;99.90;;;;;;5017363;28;20115;-68
2023/07/16 05:35:54;;;;;;;7.13;1.65;;;19.50;99.90;;;;;;5017449;28;20073;-69
2023/07/16 05:38:19;;;;;;;11.27;1.73;;;19.60;99.90;;;;;;5017241;28;20097;-68
2023/07/16 05:40:45;;;;;;;6.70;1.63;;;19.60;99.90;;;;;;5017813;28;20022;-68
2023/07/16 05:43:10;;;;;;;6.20;1.70;;;19.60;99.90;;;;;;5017228;28;20018;-68
2023/07/16 05:45:36;;;;;;;3.83;1.60;;;19.60;99.90;;;;;;5017394;28;20052;-68
2023/07/16 05:48:03;;;;;;;4.05;1.30;;;19.60;99.90;;;;;;5017248;28;20033;-69
2023/07/16 05:50:29;;;;;;;7.75;1.67;;;19.60;99.90;;;;;;5017519;28;20022;-68
2023/07/16 05:52:54;;;;;;;8.25;1.35;;;19.50;99.90;;;;;;5016939;28;20061;-68
2023/07/16 05:55:20;;;;;;;5.93;1.55;;;19.40;99.90;;;;;;5017771;28;20033;-68
2023/07/16 05:57:46;;;;;;;6.45;1.77;;;19.40;99.90;;;;;;5017079;28;20018;-68
2023/07/16 06:00:13;;;;;;;5.15;1.20;;;19.40;99.90;;;;;;5017510;28;20024;-68
2023/07/16 06:02:39;;;;;;;7.13;1.80;;;19.40;99.90;;;;;;5025314;28;20010;-68
2023/07/16 06:05:05;;;;;;;3.78;1.50;;;19.50;99.90;;;;;;5029206;28;20022;-68
2023/07/16 06:07:31;;;;;;;6.10;1.52;;;19.50;99.90;;;;;;5022417;28;20026;-68
2023/07/16 06:09:57;;;;;;;4.18;1.48;;;19.60;99.90;;;;;;5030187;28;20029;-68
2023/07/16 06:12:23;;;;;;;6.95;1.55;;;19.60;99.90;;;;;;5030673;28;20025;-70
2023/07/16 06:14:48;;;;;;;3.55;1.20;;;19.60;99.90;;;;;;5028287;28;20032;-70
2023/07/16 06:17:14;;;;;;;4.57;1.38;;;19.60;99.90;;;;;;5023019;28;20018;-70
2023/07/16 06:19:39;;;;;;;5.68;1.63;;;19.50;99.90;;;;;;5023434;28;20117;-70
2023/07/16 06:22:05;;;;;;;6.07;1.38;;;19.60;99.90;;;;;;5030665;28;20045;-70
2023/07/16 06:24:30;;;;;;;4.75;1.20;;;19.70;99.90;;;;;;5032687;28;20019;-70
2023/07/16 06:26:56;;;;;;;3.10;1.40;;;19.70;99.90;;;;;;5024660;28;20033;-70
2023/07/16 06:29:22;;;;;;;2.58;1.27;;;19.80;99.90;;;;;;5021731;28;20021;-70
2023/07/16 06:31:58;;;;;;;4.97;1.38;;;19.80;99.90;;;;;;5016514;28;20041;-70
2023/07/16 06:34:24;;;;;;;12.38;1.35;;;19.90;99.90;;;;;;5016608;28;20029;-71
2023/07/16 06:36:50;;;;;;;6.95;1.90;;;20.00;99.90;;;;;;5025055;28;20021;-71
2023/07/16 06:39:16;;;;;;;6.63;1.63;;;20.00;99.90;;;;;;5024702;28;20029;-70
2023/07/16 06:41:41;;;;;;;3.92;1.60;;;20.10;99.90;;;;;;5031828;28;20022;-70
2023/07/16 06:44:07;;;;;;;10.38;1.90;;;20.10;99.90;;;;;;5018383;28;20050;-70
2023/07/16 06:46:32;;;;;;;5.22;1.70;;;20.10;99.90;;;;;;5017363;28;20029;-70
2023/07/16 06:48:58;;;;;;;9.00;2.00;;;20.10;99.90;;;;;;5016304;28;20022;-70
2023/07/16 06:51:23;;;;;;;4.05;1.65;;;20.00;99.90;;;;;;5016030;28;20029;-71
2023/07/16 06:53:49;;;;;;;6.28;1.65;;;20.10;99.90;;;;;;5016482;28;20061;-71
2023/07/16 06:56:29;;;;;;;5.88;1.92;;;20.20;99.90;;;;;;5016712;28;20030;-71
2023/07/16 06:58:54;;;;;;;5.32;2.00;;;20.20;99.90;;;;;;5017091;28;20026;-71
2023/07/16 07:01:20;;;;;;;7.30;1.70;;;20.30;99.90;;;;;;5016405;28;20129;-71
2023/07/16 07:03:46;;;;;;;6.88;1.63;;;20.30;99.90;;;;;;5018658;28;20057;-70
2023/07/16 07:06:11;;;;;;;5.80;2.05;;;20.20;99.90;;;;;;5020995;28;20022;-70
2023/07/16 07:08:37;;;;;;;7.35;2.10;;;20.30;99.90;;;;;;5020042;28;20076;-70
2023/07/16 07:11:04;;;;;;;8.02;2.15;;;20.30;99.90;;;;;;5021203;28;20104;-70
2023/07/16 07:13:29;;;;;;;5.03;1.75;;;20.40;99.90;;;;;;5021179;28;20026;-70
2023/07/16 07:15:55;;;;;;;9.18;2.53;;;20.40;99.90;;;;;;5019759;28;20072;-71
2023/07/16 07:18:21;;;;;;;5.88;2.03;;;20.50;99.90;;;;;;5020552;28;20017;-70
2023/07/16 07:20:47;;;;;;;6.22;1.98;;;20.50;99.90;;;;;;5020770;28;20137;-70
2023/07/16 07:23:16;;;;;;;4.97;1.95;;;20.40;99.90;;;;;;5021810;28;20028;-70
2023/07/16 07:25:42;;;;;;;4.88;1.88;;;20.40;99.90;;;;;;5020855;28;20036;-70
2023/07/16 07:28:07;;;;;;;8.70;2.03;;;20.40;99.90;;;;;;5022512;28;20116;-71
2023/07/16 07:30:33;;;;;;;5.55;2.22;;;20.50;99.90;;;;;;5018851;28;20038;-71
2023/07/16 07:32:58;;;;;;;6.72;2.10;;;20.50;99.90;;;;;;5018958;28;20125;-71
2023/07/16 07:35:24;;;;;;;8.30;2.28;;;20.60;99.90;;;;;;5019498;28;20065;-71
2023/07/16 07:37:49;;;;;;;8.18;2.17;;;20.60;99.90;;;;;;5018897;28;20029;-71
2023/07/16 07:40:19;;;;;;;8.45;1.98;;;20.70;99.90;;;;;;5019594;28;20037;-71
2023/07/16 07:42:44;;;;;;;7.93;2.30;;;20.80;99.90;;;;;;5020499;28;20022;-71
2023/07/16 07:45:10;;;;;;;4.72;2.40;;;20.90;99.90;;;;;;5019368;28;20025;-71
2023/07/16 07:47:35;;;;;;;6.60;2.05;;;20.90;99.90;;;;;;5020928;28;20026;-71
2023/07/16 07:50:01;;;;;;;4.50;1.55;;;21.00;99.90;;;;;;5020185;28;20037;-71
2023/07/16 07:52:27;;;;;;;8.00;2.22;;;21.00;99.90;;;;;;5019526;28;20120;-71
2023/07/16 07:54:53;;;;;;;4.88;1.67;;;21.00;99.90;;;;;;5020347;28;20097;-71
2023/07/16 07:57:19;;;;;;;8.75;2.75;;;21.10;99.90;;;;;;5019161;28;20113;-71
2023/07/16 07:59:45;;;;;;;4.05;2.22;;;21.20;99.90;;;;;;5019263;28;20026;-71
2023/07/16 08:02:11;;;;;;;7.88;2.30;;;21.20;99.90;;;;;;5019388;28;20181;-71
2023/07/16 08:04:36;;;;;;;5.70;2.15;;;21.20;99.90;;;;;;5019082;28;20022;-71
2023/07/16 08:07:02;;;;;;;9.60;2.50;;;21.30;99.90;;;;;;5019198;28;20052;-72
2023/07/16 08:09:28;;;;;;;5.85;2.28;;;21.30;99.90;;;;;;5018968;28;20037;-72
2023/07/16 08:11:53;;;;;;;6.80;2.30;;;21.40;99.90;;;;;;5019176;28;20050;-72
2023/07/16 08:14:19;;;;;;;6.47;2.53;;;21.40;99.90;;;;;;5018366;28;20029;-72
2023/07/16 08:16:44;;;;;;;8.32;2.95;;;21.40;99.90;;;;;;5018637;28;20165;-72
2023/07/16 08:19:10;;;;;;;6.10;2.05;;;21.40;99.90;;;;;;5018646;28;20065;-72
2023/07/16 08:21:37;;;;;;;5.10;2.00;;;21.50;99.90;;;;;;5018804;28;20121;-71
2023/07/16 08:24:07;;;;;;;5.78;2.30;;;21.50;99.90;;;;;;5018617;28;20022;-71
2023/07/16 08:26:32;;;;;;;4.90;2.88;;;21.50;99.90;;;;;;5019688;28;20030;-71
2023/07/16 08:28:59;;;;;;;8.32;2.10;;;21.50;99.90;;;;;;5018481;28;20028;-71
2023/07/16 08:31:24;;;;;;;8.25;2.45;;;21.60;99.90;;;;;;5018531;28;20052;-71
2023/07/16 08:33:50;;;;;;;6.60;1.88;;;21.60;99.90;;;;;;5019500;28;20033;-71
2023/07/16 08:36:16;;;;;;;5.05;2.30;;;21.70;99.90;;;;;;5019289;28;20032;-71
2023/07/16 08:38:41;;;;;;;3.60;2.17;;;21.80;99.90;;;;;;5018337;28;20026;-72
2023/07/16 08:41:07;;;;;;;3.47;1.65;;;21.80;99.90;;;;;;5018322;28;20041;-71
2023/07/16 08:43:33;;;;;;;12.57;2.80;;;21.90;99.90;;;;;;5019643;28;20022;-72
2023/07/16 08:46:00;;;;;;;6.85;2.00;;;21.80;99.90;;;;;;5018185;28;20030;-71
2023/07/16 08:48:28;;;;;;;7.90;2.92;;;21.90;99.90;;;;;;5018161;28;20029;-71
2023/07/16 08:50:57;;;;;;;8.00;2.65;;;21.90;99.90;;;;;;5019652;28;20022;-71
2023/07/16 08:53:23;;;;;;;6.85;2.75;;;21.90;99.90;;;;;;5018414;28;20029;-71
2023/07/16 08:55:49;;;;;;;9.50;2.50;;;22.00;99.90;;;;;;5018967;28;20025;-71
2023/07/16 08:58:15;;;;;;;3.83;1.65;;;22.10;99.90;;;;;;5018978;28;20022;-71
2023/07/16 09:00:44;;;;;;;8.30;2.55;;;22.20;99.90;;;;;;5018835;28;20024;-71
2023/07/16 09:03:13;;;;;;;8.82;2.15;;;22.30;99.90;;;;;;5017819;28;20108;-71
2023/07/16 09:05:39;;;;;;;5.28;2.10;;;22.30;99.90;;;;;;5018225;28;20032;-72
2023/07/16 09:08:04;;;;;;;9.02;2.53;;;22.40;99.90;;;;;;5018169;28;20022;-72
2023/07/16 09:10:30;;;;;;;4.20;1.92;;;22.40;99.90;;;;;;5018620;28;20111;-71
2023/07/16 09:12:58;;;;;;;5.05;1.73;;;22.50;99.90;;;;;;5019398;28;20037;-71
2023/07/16 09:15:24;;;;;;;7.28;2.58;;;22.60;99.90;;;;;;5017883;28;20030;-71
2023/07/16 09:17:50;;;;;;;6.28;2.35;;;22.70;99.90;;;;;;5018710;28;20033;-71
2023/07/16 09:20:16;;;;;;;8.80;2.75;;;22.60;99.90;;;;;;5018136;28;20033;-71
2023/07/16 09:22:47;;;;;;;9.60;1.92;;;22.60;99.90;;;;;;5017559;28;20022;-71
2023/07/16 09:25:12;;;;;;;5.80;2.05;;;22.60;99.90;;;;;;5017668;28;20029;-71
2023/07/16 09:27:38;;;;;;;1.85;1.58;;;22.70;99.90;;;;;;5017712;28;20033;-71
2023/07/16 09:30:05;;;;;;;5.18;2.20;;;22.90;99.90;;;;;;5018239;28;20094;-71
2023/07/16 09:32:40;;;;;;;8.18;2.33;;;23.00;99.90;;;;;;5018625;28;20032;-72
2023/07/16 09:35:13;;;;;;;6.25;1.92;;;22.90;99.90;;;;;;5018569;28;20037;-71
2023/07/16 09:37:39;;;;;;;7.13;2.53;;;23.00;99.90;;;;;;5018117;28;20025;-71
2023/07/16 09:40:08;;;;;;;6.90;2.13;;;23.10;99.90;;;;;;5017208;28;20057;-71
2023/07/16 09:42:37;;;;;;;6.72;2.13;;;23.20;99.90;;;;;;5018245;28;20018;-71
2023/07/16 09:45:05;;;;;;;6.57;2.22;;;23.30;99.90;;;;;;5016979;28;20022;-71
2023/07/16 09:47:30;;;;;;;4.90;1.98;;;23.30;99.90;;;;;;5017403;28;20030;-71
2023/07/16 09:49:56;;;;;;;5.85;2.30;;;23.40;99.90;;;;;;5018254;28;20030;-71
2023/07/16 09:52:21;;;;;;;7.90;2.13;;;23.50;99.90;;;;;;5017729;28;20053;-71
2023/07/16 09:54:49;;;;;;;5.13;2.10;;;23.70;99.90;;;;;;5017076;28;20022;-71
2023/07/16 09:57:15;;;;;;;3.97;2.13;;;23.80;99.90;;;;;;5017704;28;20022;-72
2023/07/16 09:59:41;;;;;;;6.88;2.47;;;23.80;99.90;;;;;;5016927;28;20022;-71
2023/07/16 10:02:07;;;;;;;4.10;2.20;;;23.80;99.90;;;;;;5017734;28;20033;-72
2023/07/16 10:04:40;;;;;;;5.57;2.30;;;23.90;99.90;;;;;;5017103;28;20026;-71
2023/07/16 10:07:05;;;;;;;6.55;2.13;;;24.00;99.90;;;;;;5016777;28;20026;-72
2023/07/16 10:09:31;;;;;;;6.70;2.28;;;24.00;99.90;;;;;;5016765;28;20022;-72
2023/07/16 10:12:08;;;;;;;3.67;1.85;;;24.00;99.90;;;;;;5017916;28;20030;-72
2023/07/16 10:14:39;;;;;;;6.13;2.40;;;24.00;99.90;;;;;;5016828;28;20037;-72
2023/07/16 10:17:05;;;;;;;4.32;2.38;;;24.00;99.90;;;;;;5017671;28;20025;-71
2023/07/16 10:19:31;;;;;;;4.78;2.10;;;23.90;99.90;;;;;;5039799;23;20055;-68
2023/07/16 10:21:56;;;;;;;4.28;2.17;;;24.00;99.90;;;;;;5016951;28;20032;-68
2023/07/16 10:24:27;;;;;;;3.83;2.30;;;24.00;99.90;;;;;;5016520;28;20092;-65
2023/07/16 10:26:52;;;;;;;4.40;2.05;;;24.10;99.90;;;;;;5017161;28;20072;-66
2023/07/16 10:29:18;;;;;;;7.47;2.22;;;24.00;99.90;;;;;;5016515;28;20034;-66
2023/07/16 10:31:46;;;;;;;3.42;2.25;;;24.20;99.90;;;;;;5016474;28;20029;-66
2023/07/16 10:34:11;;;;;;;5.00;2.22;;;24.30;99.40;;;;;;5016382;28;20058;-65
2023/07/16 10:36:40;;;;;;;3.72;2.20;;;24.40;99.40;;;;;;5016421;28;20021;-66
2023/07/16 10:39:06;;;;;;;4.47;2.20;;;24.70;98.40;;;;;;5017263;28;20022;-67
2023/07/16 10:41:34;;;;;;;4.43;2.22;;;25.10;98.80;;;;;;5017003;28;20067;-66
2023/07/16 10:44:01;;;;;;;4.82;2.45;;;25.60;96.90;;;;;;5016505;28;20147;-65
2023/07/16 10:46:27;;;;;;;5.03;2.47;;;25.60;95.40;;;;;;5016286;28;20030;-65
2023/07/16 10:48:53;;;;;;;3.67;2.30;;;25.50;95.50;;;;;;5016116;28;20022;-65
2023/07/16 10:51:26;;;;;;;6.38;2.53;;;25.80;94.80;;;;;;5017407;28;20042;-65
2023/07/16 10:53:54;;;;;;;3.65;2.20;;;26.30;94.30;;;;;;5016441;28;20022;-66
2023/07/16 10:56:20;;;;;;;4.32;2.35;;;26.80;93.80;;;;;;5017416;28;20084;-66
2023/07/16 10:58:46;;;;;;;5.82;3.22;;;27.20;92.20;;;;;;5016487;28;20022;-65
2023/07/16 11:01:11;;;;;;;9.35;3.17;;;27.40;91.40;;;;;;5015895;28;20076;-66
2023/07/16 11:03:37;;;;;;;6.40;2.60;;;27.80;90.00;;;;;;5016116;28;20018;-66
2023/07/16 11:06:09;;;;;;;4.75;2.70;;;28.10;88.60;;;;;;5016918;28;20022;-65
2023/07/16 11:08:35;;;;;;;7.75;3.00;;;28.10;85.80;;;;;;5016244;28;20025;-68
2023/07/16 11:11:00;;;;;;;7.57;2.90;;;27.70;84.40;;;;;;5016465;28;20037;-68
2023/07/16 11:13:33;;;;;;;4.95;2.75;;;26.70;85.90;;;;;;5016741;28;20022;-68
2023/07/16 11:16:09;;;;;;;9.07;3.35;;;26.40;86.80;;;;;;5016484;28;20046;-68
2023/07/16 11:18:35;;;;;;;3.67;2.33;;;26.50;87.70;;;;;;5015898;28;20134;-68
2023/07/16 11:21:00;;;;;;;3.72;2.30;;;26.80;86.30;;;;;;5016631;28;20065;-68
2023/07/16 11:23:26;;;;;;;5.00;2.38;;;27.20;86.00;;;;;;5015932;28;20026;-68
2023/07/16 11:25:52;;;;;;;3.75;2.55;;;27.40;84.90;;;;;;5016967;28;20029;-68
2023/07/16 11:28:18;;;;;;;5.07;2.83;;;27.40;83.10;;;;;;5015753;28;20026;-68
2023/07/16 11:30:43;;;;;;;4.38;2.58;;;27.70;83.00;;;;;;5015811;28;20049;-68
2023/07/16 11:33:12;;;;;;;6.95;2.45;;;28.10;81.60;;;;;;5015791;28;20027;-68
2023/07/16 11:35:39;;;;;;;6.10;2.38;;;28.00;81.30;;;;;;5015624;28;20026;-68
2023/07/16 11:38:08;;;;;;;6.90;3.25;;;28.30;80.00;;;;;;5016268;28;20025;-68
2023/07/16 11:40:35;;;;;;;5.72;3.17;;;28.50;79.80;;;;;;5016807;28;20022;-68
2023/07/16 11:43:09;;;;;;;5.82;3.10;;;28.30;80.20;;;;;;5016841;28;20026;-68
2023/07/16 11:45:35;;;;;;;7.20;3.15;;;28.20;80.10;;;;;;5015721;28;20030;-68
2023/07/16 11:48:02;;;;;;;6.35;2.70;;;28.10;79.10;;;;;;5015929;28;20117;-68
2023/07/16 11:50:29;;;;;;;6.93;3.03;;;27.70;79.30;;;;;;5018810;28;20021;-68
2023/07/16 11:52:56;;;;;;;7.78;3.30;;;27.20;80.80;;;;;;5019338;28;20099;-68
2023/07/16 11:55:22;;;;;;;14.27;6.28;;;26.80;82.10;;;;;;5019218;28;20026;-68
2023/07/16 11:57:47;;;;;;;13.18;7.50;;;26.60;83.40;;;;;;5019457;28;20026;-68
2023/07/16 12:00:13;;;;;;;5.80;4.20;;;26.30;83.60;;;;;;5019652;28;20026;-68
2023/07/16 12:02:39;;;;;;;4.43;3.10;;;26.00;84.00;;;;;;5019118;28;20025;-68
2023/07/16 12:05:05;;;;;;;7.53;3.20;;;26.00;85.00;;;;;;5019976;28;20018;-68
2023/07/16 12:07:36;;;;;;;6.00;2.58;;;26.50;83.70;;;;;;5019096;28;20025;-68
2023/07/16 12:10:04;;;;;;;8.35;2.90;;;27.10;81.60;;;;;;5019843;28;20022;-68
2023/07/16 12:12:30;;;;;;;4.47;2.45;;;26.70;81.70;;;;;;5019950;28;20026;-68
2023/07/16 12:14:55;;;;;;;7.63;2.30;;;26.20;82.90;;;;;;5018815;28;20036;-68
2023/07/16 12:17:21;;;;;;;5.85;2.25;;;26.20;83.10;;;;;;5019209;28;20032;-68
2023/07/16 12:19:46;;;;;;;5.45;2.50;;;26.30;82.20;;;;;;5018941;28;20030;-68
2023/07/16 12:22:13;;;;;;;5.70;2.40;;;26.20;82.40;;;;;;5020099;28;20068;-68
2023/07/16 12:24:39;;;;;;;2.70;2.35;;;26.20;82.30;;;;;;5019535;28;20117;-68
2023/07/16 12:27:05;;;;;;;7.82;3.72;;;26.40;82.70;;;;;;5019009;28;20124;-68
2023/07/16 12:29:31;;;;;;;5.63;2.97;;;27.20;81.20;;;;;;5018520;28;20117;-68
2023/07/16 12:31:56;;;;;;;3.97;2.30;;;27.80;79.50;;;;;;5018678;28;20057;-68
2023/07/16 12:34:22;;;;;;;5.57;2.70;;;27.70;78.90;;;;;;5019563;28;20026;-68
2023/07/16 12:36:48;;;;;;;3.28;2.50;;;27.60;78.80;;;;;;5018644;28;20093;-68
2023/07/16 12:39:13;;;;;;;10.20;2.75;;;27.50;78.30;;;;;;5018660;28;20022;-68
2023/07/16 12:41:39;;;;;;;6.10;3.22;;;27.20;77.30;;;;;;5018650;28;20029;-68
2023/07/16 12:44:04;;;;;;;4.97;2.70;;;27.00;78.70;;;;;;5018298;28;20105;-68